New Hope, Mississippi
Current Conditions -  °F | °C
As of 8:55 AM on Saturday 22 Nov 2014 (Local Time) from KGTR Reporting Station
Broken Clouds Broken Clouds  
Wind Chill: 55°   Ceiling: 12000
Heat Index: 55°   Visibility: 10mi
Dew Point: 39°   Wind: 14mph
Humidity: 54%   Direction: 150°SSE
Pressure: 30.31"   Gusts: NA
Location:  33.455°N, 88.5512°W
Report Text: KGTR 221455Z 15012KT 10SM BKN120 13/04 A3031
Loading
Personal Weather Stations






























Interactive Weather Map New forecast layout! Learn more

10-Day Weather Forecast

Advertisements
Track Severe Weather on mobile